createdAt,value
2023-05-14T00:00:55.800Z,49.25
2023-05-14T00:03:23.654Z,49.84
2023-05-14T00:05:52.358Z,50.06
2023-05-14T00:08:20.189Z,49.88
2023-05-14T00:10:47.923Z,50.24
2023-05-14T00:13:15.766Z,50.65
2023-05-14T00:15:43.618Z,50.44
2023-05-14T00:18:12.519Z,50.67
2023-05-14T00:20:41.292Z,50.58
2023-05-14T00:23:09.418Z,50.48
2023-05-14T00:25:37.483Z,50.54
2023-05-14T00:28:05.656Z,51.25
2023-05-14T00:30:33.893Z,51.12
2023-05-14T00:33:01.818Z,51.70
2023-05-14T00:35:29.718Z,51.40
2023-05-14T00:37:57.909Z,51.73
2023-05-14T00:40:27.269Z,51.72
2023-05-14T00:42:55.885Z,52.02
2023-05-14T00:45:23.776Z,51.76
2023-05-14T00:47:52.201Z,52.28
2023-05-14T00:50:20.584Z,52.21
2023-05-14T00:52:48.405Z,52.47
2023-05-14T00:55:16.845Z,52.67
2023-05-14T00:57:45.352Z,53.08
2023-05-14T01:00:13.674Z,52.61
2023-05-14T01:02:41.618Z,52.54
2023-05-14T01:05:10.180Z,53.33
2023-05-14T01:07:44.092Z,53.47
2023-05-14T01:10:25.619Z,53.72
2023-05-14T01:13:14.463Z,53.68
2023-05-14T01:15:43.166Z,54.00
2023-05-14T01:18:11.951Z,53.63
2023-05-14T01:20:39.788Z,53.66
2023-05-14T01:23:09.469Z,54.34
2023-05-14T01:25:37.721Z,54.24
2023-05-14T01:28:13.770Z,54.10
2023-05-14T01:30:49.365Z,54.50
2023-05-14T01:33:18.648Z,54.37
2023-05-14T01:35:46.652Z,54.28
2023-05-14T01:38:15.597Z,54.99
2023-05-14T01:40:44.415Z,54.37
2023-05-14T01:43:12.602Z,54.50
2023-05-14T01:45:42.542Z,54.49
2023-05-14T01:48:10.886Z,54.49
2023-05-14T01:50:38.824Z,54.21
2023-05-14T01:53:06.797Z,53.71
2023-05-14T01:55:34.575Z,53.09
2023-05-14T01:58:02.437Z,51.80
2023-05-14T02:00:30.674Z,50.85
2023-05-14T02:03:00.190Z,49.85
2023-05-14T02:05:28.194Z,49.14
2023-05-14T02:07:56.136Z,48.46
2023-05-14T02:10:24.221Z,47.83
2023-05-14T02:12:53.156Z,47.39
2023-05-14T02:15:21.363Z,46.50
2023-05-14T02:17:49.424Z,46.97
2023-05-14T02:20:17.507Z,46.51
2023-05-14T02:22:51.571Z,45.81
2023-05-14T02:25:19.410Z,45.49
2023-05-14T02:27:49.723Z,45.74
2023-05-14T02:30:17.641Z,45.72
2023-05-14T02:32:46.210Z,45.10
2023-05-14T02:35:14.195Z,44.59
2023-05-14T02:37:42.130Z,43.40
2023-05-14T02:40:10.607Z,41.91
2023-05-14T02:42:38.431Z,40.86
2023-05-14T02:45:06.951Z,40.42
2023-05-14T02:47:37.762Z,40.19
2023-05-14T02:50:06.944Z,39.98
2023-05-14T02:52:34.956Z,38.84
2023-05-14T02:55:03.099Z,38.60
2023-05-14T02:57:33.747Z,37.81
2023-05-14T03:00:01.621Z,37.56
2023-05-14T03:02:36.017Z,37.41
2023-05-14T03:05:04.389Z,37.20
2023-05-14T03:07:32.218Z,35.93
2023-05-14T03:10:00.793Z,34.48
2023-05-14T03:12:28.752Z,34.71
2023-05-14T03:14:56.615Z,34.05
2023-05-14T03:17:24.586Z,33.79
2023-05-14T03:19:52.376Z,32.85
2023-05-14T03:22:20.468Z,32.20
2023-05-14T03:24:48.964Z,31.69
2023-05-14T03:27:16.806Z,32.11
2023-05-14T03:29:44.613Z,32.38
2023-05-14T03:32:12.454Z,31.53
2023-05-14T03:34:40.246Z,31.18
2023-05-14T03:37:08.203Z,30.92
2023-05-14T03:39:36.316Z,31.32
2023-05-14T03:42:06.015Z,30.85
2023-05-14T03:44:33.808Z,30.30
2023-05-14T03:47:01.575Z,30.11
2023-05-14T03:49:29.581Z,29.62
2023-05-14T03:51:59.534Z,28.31
2023-05-14T03:54:27.450Z,28.76
2023-05-14T03:56:55.442Z,29.59
2023-05-14T03:59:23.214Z,29.76
2023-05-14T04:01:51.090Z,30.01
2023-05-14T04:04:20.381Z,29.55
2023-05-14T04:06:48.259Z,28.82
2023-05-14T04:09:16.154Z,28.43
2023-05-14T04:11:43.956Z,28.15
2023-05-14T04:14:12.079Z,28.28
2023-05-14T04:16:40.105Z,29.62
2023-05-14T04:19:08.091Z,30.24
2023-05-14T04:21:37.123Z,29.54
2023-05-14T04:24:05.351Z,29.99
2023-05-14T04:26:33.384Z,29.95
2023-05-14T04:29:03.236Z,29.57
2023-05-14T04:31:31.868Z,30.33
2023-05-14T04:33:59.707Z,32.16
2023-05-14T04:36:27.471Z,30.67
2023-05-14T04:38:55.202Z,30.60
2023-05-14T04:41:23.560Z,30.67
2023-05-14T04:43:51.812Z,31.59
2023-05-14T04:46:19.934Z,33.14
2023-05-14T04:48:48.464Z,34.09
2023-05-14T04:51:18.801Z,34.47
2023-05-14T04:53:46.693Z,34.59
2023-05-14T04:56:14.630Z,33.76
2023-05-14T04:58:42.507Z,32.96
2023-05-14T05:01:10.461Z,32.08
2023-05-14T05:03:38.372Z,32.61
2023-05-14T05:06:06.485Z,33.39
2023-05-14T05:08:34.560Z,33.42
2023-05-14T05:11:02.319Z,33.38
2023-05-14T05:13:30.083Z,33.49
2023-05-14T05:15:58.205Z,33.75
2023-05-14T05:18:26.290Z,33.83
2023-05-14T05:20:54.208Z,34.08
2023-05-14T05:23:21.990Z,34.82
2023-05-14T05:25:50.658Z,37.08
2023-05-14T05:28:18.425Z,37.06
2023-05-14T05:30:46.261Z,35.73
2023-05-14T05:33:14.258Z,35.62
2023-05-14T05:35:42.116Z,35.73
2023-05-14T05:38:10.046Z,35.29
2023-05-14T05:40:37.827Z,33.75
2023-05-14T05:43:05.806Z,33.94
2023-05-14T05:45:33.654Z,33.36
2023-05-14T05:48:01.626Z,32.16
2023-05-14T05:50:31.861Z,30.94
2023-05-14T05:52:59.780Z,32.74
2023-05-14T05:55:27.618Z,32.25
2023-05-14T05:57:55.480Z,33.07
2023-05-14T06:00:24.078Z,33.58
2023-05-14T06:02:54.012Z,33.63
2023-05-14T06:05:21.995Z,32.12
2023-05-14T06:07:49.847Z,30.76
2023-05-14T06:10:17.650Z,30.29
2023-05-14T06:12:45.689Z,30.13
2023-05-14T06:15:13.570Z,30.40
2023-05-14T06:17:41.715Z,29.58
2023-05-14T06:20:10.016Z,29.35
2023-05-14T06:22:38.179Z,28.83
2023-05-14T06:25:06.623Z,29.19
2023-05-14T06:27:34.342Z,28.87
2023-05-14T06:30:02.185Z,29.44
2023-05-14T06:32:33.757Z,30.42
2023-05-14T06:35:01.666Z,30.23
2023-05-14T06:37:30.139Z,30.05
2023-05-14T06:39:58.143Z,29.93
2023-05-14T06:42:26.740Z,30.46
2023-05-14T06:44:54.911Z,31.20
2023-05-14T06:47:25.250Z,31.32
2023-05-14T06:49:53.175Z,30.52
2023-05-14T06:52:20.931Z,30.00
2023-05-14T06:54:48.704Z,31.38
2023-05-14T06:57:16.580Z,32.48
2023-05-14T06:59:44.545Z,32.65
2023-05-14T07:02:12.879Z,32.75
2023-05-14T07:04:40.783Z,32.02
2023-05-14T07:07:10.687Z,30.98
2023-05-14T07:09:38.617Z,31.70
2023-05-14T07:12:07.237Z,31.31
2023-05-14T07:14:35.072Z,31.53
2023-05-14T07:17:02.915Z,32.00
2023-05-14T07:19:30.865Z,32.49
2023-05-14T07:21:58.619Z,31.86
2023-05-14T07:24:26.449Z,31.99
2023-05-14T07:26:54.720Z,30.15
2023-05-14T07:29:22.526Z,31.22
2023-05-14T07:31:50.429Z,30.63
2023-05-14T07:34:18.734Z,30.01
2023-05-14T07:36:46.920Z,29.89
2023-05-14T07:39:14.738Z,30.54
2023-05-14T07:41:42.525Z,31.20
2023-05-14T07:44:10.419Z,30.84
2023-05-14T07:46:38.347Z,30.86
2023-05-14T07:49:06.107Z,30.75
2023-05-14T07:51:34.120Z,30.52
2023-05-14T07:54:20.870Z,30.34
2023-05-14T07:56:48.667Z,30.51
2023-05-14T07:59:16.626Z,30.85
2023-05-14T08:01:44.587Z,31.38
2023-05-14T08:04:12.535Z,32.22
2023-05-14T08:06:40.414Z,32.72
2023-05-14T08:09:08.902Z,33.39
2023-05-14T08:11:36.755Z,34.09
2023-05-14T08:14:04.735Z,34.40
2023-05-14T08:16:35.921Z,34.90
2023-05-14T08:19:06.553Z,34.87
2023-05-14T08:21:34.363Z,34.06
2023-05-14T08:24:02.192Z,35.12
2023-05-14T08:26:30.081Z,35.00
2023-05-14T08:28:57.917Z,34.90
2023-05-14T08:31:28.573Z,34.52
2023-05-14T08:33:59.404Z,33.90
2023-05-14T08:36:27.361Z,33.64
2023-05-14T08:38:55.223Z,33.36
2023-05-14T08:41:23.232Z,33.36
2023-05-14T08:44:00.335Z,32.60
2023-05-14T08:46:30.757Z,33.45
2023-05-14T08:49:16.100Z,33.58
2023-05-14T08:51:47.184Z,33.51
2023-05-14T08:54:17.222Z,33.30
2023-05-14T08:56:46.713Z,34.04
2023-05-14T08:59:14.739Z,34.23
2023-05-14T09:01:48.280Z,34.06
2023-05-14T09:04:16.655Z,33.87
2023-05-14T09:06:51.869Z,33.88
2023-05-14T09:09:23.074Z,33.16
2023-05-14T09:11:52.334Z,32.85
2023-05-14T09:14:21.039Z,32.86
2023-05-14T09:16:50.117Z,33.11
2023-05-14T09:19:21.916Z,33.34
2023-05-14T09:21:50.113Z,33.70
2023-05-14T09:24:22.647Z,33.01
2023-05-14T09:26:55.153Z,33.64
2023-05-14T09:29:27.665Z,33.31
2023-05-14T09:31:56.856Z,33.62
2023-05-14T09:34:28.942Z,33.28
2023-05-14T09:36:58.720Z,33.46
2023-05-14T09:39:26.808Z,32.65
2023-05-14T09:41:55.240Z,32.49
2023-05-14T09:44:23.683Z,32.45
2023-05-14T09:46:52.740Z,31.95
2023-05-14T09:49:21.078Z,31.91
2023-05-14T09:51:49.602Z,32.27
2023-05-14T09:54:17.727Z,32.68
2023-05-14T09:56:45.578Z,33.85
2023-05-14T09:59:13.701Z,34.65
2023-05-14T10:01:43.773Z,34.25
2023-05-14T10:04:12.341Z,34.83
2023-05-14T10:06:42.255Z,34.27
2023-05-14T10:09:14.129Z,34.56
2023-05-14T10:11:46.432Z,34.83
2023-05-14T10:14:25.651Z,35.10
2023-05-14T10:16:54.294Z,34.23
2023-05-14T10:19:24.618Z,34.16
2023-05-14T10:22:04.622Z,33.70
2023-05-14T10:24:33.064Z,34.61
2023-05-14T10:27:01.452Z,33.07
2023-05-14T10:29:37.440Z,33.14
2023-05-14T10:32:07.220Z,33.33
2023-05-14T10:34:44.165Z,34.20
2023-05-14T10:37:14.883Z,33.98
2023-05-14T10:39:46.008Z,34.32
2023-05-14T10:42:27.658Z,33.84
2023-05-14T10:45:01.902Z,34.80
2023-05-14T10:47:37.488Z,34.03
2023-05-14T10:50:07.902Z,33.37
2023-05-14T10:52:35.931Z,34.01
2023-05-14T10:55:10.932Z,33.83
2023-05-14T10:57:39.843Z,33.26
2023-05-14T11:00:09.183Z,33.45
2023-05-14T11:02:38.773Z,33.50
2023-05-14T11:05:08.779Z,32.90
2023-05-14T11:07:38.648Z,31.48
2023-05-14T11:10:11.723Z,32.01
2023-05-14T11:12:41.171Z,32.72
2023-05-14T11:15:10.865Z,33.06
2023-05-14T11:17:40.827Z,33.69
2023-05-14T11:20:09.724Z,34.21
2023-05-14T11:22:39.327Z,34.35
2023-05-14T11:25:07.919Z,34.62
2023-05-14T11:27:38.303Z,34.17
2023-05-14T11:30:27.009Z,33.96
2023-05-14T11:32:56.036Z,33.76
2023-05-14T11:35:24.330Z,33.36
2023-05-14T11:37:52.749Z,33.85
2023-05-14T11:40:21.028Z,33.62
2023-05-14T11:42:51.555Z,32.76
2023-05-14T11:45:30.120Z,33.37
2023-05-14T11:47:58.255Z,32.98
2023-05-14T11:50:26.257Z,33.33
2023-05-14T11:52:57.322Z,33.41
2023-05-14T11:55:25.945Z,34.24
2023-05-14T11:58:01.519Z,32.93
2023-05-14T12:00:29.380Z,32.58
2023-05-14T12:02:57.335Z,32.76
2023-05-14T12:05:25.674Z,33.16
2023-05-14T12:07:53.441Z,33.55
2023-05-14T12:10:21.274Z,33.56
2023-05-14T12:12:49.427Z,33.56
2023-05-14T12:15:17.480Z,34.14
2023-05-14T12:17:51.953Z,34.52
2023-05-14T12:20:20.261Z,35.71
2023-05-14T12:22:48.212Z,35.45
2023-05-14T12:25:16.625Z,35.59
2023-05-14T12:27:45.717Z,35.27
2023-05-14T12:32:46.014Z,35.13
2023-05-14T12:35:13.868Z,34.72
2023-05-14T12:37:42.699Z,34.93
2023-05-14T12:40:14.112Z,34.97
2023-05-14T12:42:42.025Z,34.64
2023-05-14T12:45:10.384Z,34.94
2023-05-14T12:47:38.337Z,34.87
2023-05-14T12:50:07.044Z,34.79
2023-05-14T12:52:39.653Z,34.84
2023-05-14T12:55:13.467Z,33.72
2023-05-14T12:57:42.104Z,34.12
2023-05-14T13:00:13.937Z,34.34
2023-05-14T13:02:43.713Z,34.62
2023-05-14T13:05:15.428Z,34.88
2023-05-14T13:07:43.379Z,35.34
2023-05-14T13:10:11.732Z,35.42
2023-05-14T13:12:39.927Z,35.72
2023-05-14T13:15:10.170Z,36.75
2023-05-14T13:17:38.204Z,37.44
2023-05-14T13:20:06.893Z,37.25
2023-05-14T13:22:37.814Z,37.50
2023-05-14T13:25:06.551Z,37.74
2023-05-14T13:27:35.986Z,37.36
2023-05-14T13:30:04.555Z,37.75
2023-05-14T13:32:33.059Z,37.46
2023-05-14T13:35:00.984Z,37.41
2023-05-14T13:37:31.295Z,37.47
2023-05-14T13:40:04.646Z,38.02
2023-05-14T13:42:32.834Z,37.65
2023-05-14T13:45:01.274Z,37.90
2023-05-14T13:47:33.699Z,38.22
2023-05-14T13:50:01.819Z,37.98
2023-05-14T13:52:33.664Z,37.55
2023-05-14T13:55:01.839Z,37.92
2023-05-14T13:57:33.952Z,37.93
2023-05-14T14:00:01.759Z,37.73
2023-05-14T14:02:34.523Z,38.39
2023-05-14T14:05:02.525Z,38.88
2023-05-14T14:07:32.723Z,38.36
2023-05-14T14:10:01.738Z,38.76
2023-05-14T14:12:33.528Z,38.78
2023-05-14T14:15:02.898Z,38.53
2023-05-14T14:17:35.134Z,38.61
2023-05-14T14:20:06.139Z,38.82
2023-05-14T14:22:34.353Z,38.78
2023-05-14T14:25:02.664Z,39.12
2023-05-14T14:27:34.157Z,39.15
2023-05-14T14:30:01.987Z,39.28
2023-05-14T14:32:33.203Z,39.08
2023-05-14T14:35:01.506Z,39.18
2023-05-14T14:37:30.978Z,39.48
2023-05-14T14:39:58.875Z,39.03
2023-05-14T14:42:26.666Z,38.97
2023-05-14T14:44:54.433Z,39.46
2023-05-14T14:47:22.317Z,39.36
2023-05-14T14:49:50.098Z,39.73
2023-05-14T14:52:18.000Z,39.20
2023-05-14T14:54:45.801Z,39.33
2023-05-14T14:57:13.594Z,39.36
2023-05-14T14:59:41.524Z,39.11
2023-05-14T15:02:10.045Z,39.41
2023-05-14T15:04:38.844Z,39.89
2023-05-14T15:07:06.617Z,39.73
2023-05-14T15:09:34.354Z,39.73
2023-05-14T15:12:02.290Z,39.89
2023-05-14T15:14:30.153Z,39.69
2023-05-14T15:16:58.024Z,40.08
2023-05-14T15:19:25.853Z,39.68
2023-05-14T15:21:53.636Z,39.42
2023-05-14T15:24:24.043Z,40.03
2023-05-14T15:26:53.386Z,39.83
2023-05-14T15:29:21.613Z,39.94
2023-05-14T15:31:49.670Z,40.23
2023-05-14T15:34:17.596Z,40.86
2023-05-14T15:36:45.383Z,41.05
2023-05-14T15:39:13.173Z,40.57
2023-05-14T15:41:41.099Z,40.87
2023-05-14T15:44:08.966Z,41.28
2023-05-14T15:46:38.104Z,40.81
2023-05-14T15:49:06.215Z,41.48
2023-05-14T15:51:34.808Z,40.70
2023-05-14T15:54:02.720Z,40.99
2023-05-14T15:56:31.098Z,41.27
2023-05-14T15:58:59.034Z,41.53
2023-05-14T16:01:26.861Z,41.75
2023-05-14T16:03:54.996Z,41.24
2023-05-14T16:06:22.933Z,41.64
2023-05-14T16:08:52.400Z,41.46
2023-05-14T16:11:21.568Z,41.68
2023-05-14T16:13:49.388Z,41.99
2023-05-14T16:16:17.200Z,42.21
2023-05-14T16:18:45.205Z,42.47
2023-05-14T16:21:13.024Z,42.57
2023-05-14T16:23:41.399Z,42.79
2023-05-14T16:26:09.216Z,42.80
2023-05-14T16:28:37.077Z,42.82
2023-05-14T16:31:04.852Z,43.20
2023-05-14T16:33:32.685Z,43.41
2023-05-14T16:36:00.459Z,43.36
2023-05-14T16:38:28.195Z,43.34
2023-05-14T16:40:56.023Z,43.29
2023-05-14T16:43:23.863Z,43.06
2023-05-14T16:45:51.724Z,43.40
2023-05-14T16:48:19.547Z,43.17
2023-05-14T16:50:47.289Z,42.65
2023-05-14T16:53:15.059Z,43.12
2023-05-14T16:55:42.900Z,43.02
2023-05-14T16:58:10.897Z,43.01
2023-05-14T17:00:38.784Z,42.91
2023-05-14T17:03:07.411Z,43.07
2023-05-14T17:05:35.823Z,42.74
2023-05-14T17:08:04.865Z,42.78
2023-05-14T17:10:33.457Z,43.54
2023-05-14T17:13:01.364Z,43.68
2023-05-14T17:15:29.888Z,43.65
2023-05-14T17:17:57.970Z,44.03
2023-05-14T17:20:26.303Z,43.91
2023-05-14T17:22:54.039Z,44.27
2023-05-14T17:25:23.935Z,44.54
2023-05-14T17:27:52.900Z,44.46
2023-05-14T17:30:20.803Z,44.38
2023-05-14T17:32:50.900Z,44.78
2023-05-14T17:35:19.055Z,44.71
2023-05-14T17:37:46.891Z,44.92
2023-05-14T17:40:14.655Z,45.16
2023-05-14T17:42:42.579Z,45.49
2023-05-14T17:45:10.755Z,45.61
2023-05-14T17:47:38.631Z,45.94
2023-05-14T17:50:07.267Z,45.68
2023-05-14T17:52:35.338Z,45.79
2023-05-14T17:55:03.300Z,45.64
2023-05-14T17:57:32.171Z,46.61
2023-05-14T18:00:00.152Z,46.13
2023-05-14T18:02:28.217Z,46.35
2023-05-14T18:04:56.140Z,46.37
2023-05-14T18:07:24.156Z,46.43
2023-05-14T18:09:53.206Z,46.78
2023-05-14T18:12:21.038Z,47.23
2023-05-14T18:14:48.844Z,47.54
2023-05-14T18:17:17.431Z,47.24
2023-05-14T18:19:45.324Z,47.80
2023-05-14T18:22:13.266Z,48.15
2023-05-14T18:24:41.275Z,47.72
2023-05-14T18:27:09.217Z,47.84
2023-05-14T18:29:37.054Z,48.39
2023-05-14T18:32:05.540Z,48.41
2023-05-14T18:34:33.357Z,48.51
2023-05-14T18:37:02.428Z,48.88
2023-05-14T18:39:30.359Z,48.45
2023-05-14T18:41:58.244Z,48.86
2023-05-14T18:44:26.218Z,49.13
2023-05-14T18:46:55.163Z,49.51
2023-05-14T18:49:23.180Z,49.48
2023-05-14T18:51:51.110Z,49.29
2023-05-14T18:54:18.975Z,49.82
2023-05-14T18:56:49.761Z,49.89
2023-05-14T18:59:20.691Z,49.78
2023-05-14T19:01:48.709Z,50.04
2023-05-14T19:04:19.776Z,50.28
2023-05-14T19:06:53.983Z,50.28
2023-05-14T19:09:22.062Z,50.41
2023-05-14T19:11:53.060Z,50.47
2023-05-14T19:14:21.436Z,50.26
2023-05-14T19:16:49.319Z,50.68
2023-05-14T19:19:17.402Z,50.91
2023-05-14T19:21:45.236Z,51.47
2023-05-14T19:24:23.264Z,50.61
2023-05-14T19:26:51.200Z,51.30
2023-05-14T19:29:19.211Z,51.66
2023-05-14T19:31:47.492Z,51.69
2023-05-14T19:34:15.449Z,51.96
2023-05-14T19:36:43.395Z,52.20
2023-05-14T19:39:11.194Z,52.13
2023-05-14T19:41:39.254Z,52.53
2023-05-14T19:44:07.192Z,52.08
2023-05-14T19:46:37.408Z,52.27
2023-05-14T19:49:05.292Z,52.67
2023-05-14T19:51:33.254Z,53.33
2023-05-14T19:54:01.325Z,53.25
2023-05-14T19:56:29.237Z,53.17
2023-05-14T19:58:57.032Z,53.27
2023-05-14T20:01:24.961Z,53.43
2023-05-14T20:03:52.976Z,53.74
2023-05-14T20:06:20.809Z,53.85
2023-05-14T20:08:48.875Z,53.39
2023-05-14T20:11:18.169Z,53.71
2023-05-14T20:13:46.277Z,54.22
2023-05-14T20:16:16.924Z,53.83
2023-05-14T20:18:45.058Z,53.92
2023-05-14T20:21:13.027Z,54.62
2023-05-14T20:23:40.943Z,53.83
2023-05-14T20:26:08.747Z,54.16
2023-05-14T20:28:36.588Z,54.21
2023-05-14T20:31:04.516Z,54.00
2023-05-14T20:33:32.457Z,55.14
2023-05-14T20:36:00.427Z,54.44
2023-05-14T20:38:29.598Z,54.81
2023-05-14T20:40:57.910Z,55.23
2023-05-14T20:43:27.809Z,54.94
2023-05-14T20:45:58.479Z,55.52
2023-05-14T20:48:26.398Z,55.28
2023-05-14T20:50:54.424Z,55.25
2023-05-14T20:53:22.313Z,55.65
2023-05-14T20:55:50.178Z,56.30
2023-05-14T20:58:17.960Z,55.53
2023-05-14T21:00:46.021Z,55.91
2023-05-14T21:03:13.944Z,55.53
2023-05-14T21:05:43.782Z,56.14
2023-05-14T21:08:11.666Z,56.63
2023-05-14T21:10:39.442Z,56.32
2023-05-14T21:13:10.336Z,56.75
2023-05-14T21:15:38.182Z,57.02
2023-05-14T21:18:06.082Z,56.96
2023-05-14T21:20:34.037Z,56.19
2023-05-14T21:23:01.961Z,56.26
2023-05-14T21:25:31.068Z,56.71
2023-05-14T21:27:58.999Z,56.99
2023-05-14T21:30:26.832Z,56.71
2023-05-14T21:32:54.754Z,56.90
2023-05-14T21:35:25.938Z,56.43
2023-05-14T21:37:54.337Z,56.58
2023-05-14T21:40:22.143Z,57.06
2023-05-14T21:42:50.105Z,56.88
2023-05-14T21:45:18.072Z,56.90
2023-05-14T21:47:45.893Z,56.86
2023-05-14T21:50:13.907Z,56.88
2023-05-14T21:52:41.759Z,57.08
2023-05-14T21:55:09.724Z,57.37
2023-05-14T21:57:37.555Z,57.81
2023-05-14T22:00:10.154Z,57.63
2023-05-14T22:02:38.008Z,57.40
2023-05-14T22:05:06.115Z,57.77
2023-05-14T22:07:33.935Z,57.60
2023-05-14T22:10:01.768Z,57.28
2023-05-14T22:12:29.847Z,57.55
2023-05-14T22:14:57.602Z,57.41
2023-05-14T22:17:25.468Z,57.62
2023-05-14T22:19:53.182Z,58.21
2023-05-14T22:22:20.931Z,57.97
2023-05-14T22:24:48.685Z,58.40
2023-05-14T22:27:16.616Z,58.16
2023-05-14T22:29:44.732Z,58.29
2023-05-14T22:32:12.534Z,58.48
2023-05-14T22:34:40.381Z,57.80
2023-05-14T22:37:08.752Z,58.74
2023-05-14T22:39:36.501Z,58.72
2023-05-14T22:42:04.501Z,58.80
2023-05-14T22:44:32.380Z,59.00
2023-05-14T22:47:00.115Z,58.91
2023-05-14T22:49:27.907Z,58.92
2023-05-14T22:51:55.821Z,58.70
2023-05-14T22:54:23.702Z,58.77
2023-05-14T22:56:51.705Z,59.07
2023-05-14T22:59:20.581Z,59.60
2023-05-14T23:01:49.922Z,59.21
2023-05-14T23:04:17.841Z,60.07
2023-05-14T23:06:45.690Z,59.55
2023-05-14T23:09:13.522Z,59.63
2023-05-14T23:11:41.193Z,59.75
2023-05-14T23:14:09.116Z,59.78
2023-05-14T23:16:39.439Z,60.30
2023-05-14T23:19:07.388Z,60.05
2023-05-14T23:21:35.325Z,60.34
2023-05-14T23:24:03.098Z,60.60
2023-05-14T23:26:30.951Z,61.02
2023-05-14T23:28:58.753Z,61.07
2023-05-14T23:31:26.731Z,60.80
2023-05-14T23:33:54.721Z,61.27
2023-05-14T23:36:22.793Z,61.04
2023-05-14T23:38:51.021Z,61.09
2023-05-14T23:41:18.981Z,61.31
2023-05-14T23:43:46.817Z,61.27
2023-05-14T23:46:15.051Z,61.36
2023-05-14T23:48:42.892Z,61.87
2023-05-14T23:51:10.753Z,61.98
2023-05-14T23:53:38.568Z,62.31
2023-05-14T23:56:06.594Z,61.82
2023-05-14T23:58:34.402Z,62.12
